sensor_id;sensor_type;location;lat;lon;timestamp;P1;durP1;ratioP1;P2;durP2;ratioP2
32399;SDS011;45045;45.440;9.178;2023-08-21T00:01:12;13.15;;;7.78;;
32399;SDS011;45045;45.440;9.178;2023-08-21T00:03:38;10.00;;;7.72;;
32399;SDS011;45045;45.440;9.178;2023-08-21T00:06:04;12.07;;;7.45;;
32399;SDS011;45045;45.440;9.178;2023-08-21T00:08:29;11.02;;;7.65;;
32399;SDS011;45045;45.440;9.178;2023-08-21T00:10:55;14.65;;;7.95;;
32399;SDS011;45045;45.440;9.178;2023-08-21T00:13:21;15.73;;;8.20;;
32399;SDS011;45045;45.440;9.178;2023-08-21T00:15:47;12.55;;;7.65;;
32399;SDS011;45045;45.440;9.178;2023-08-21T00:18:12;10.15;;;7.72;;
32399;SDS011;45045;45.440;9.178;2023-08-21T00:20:39;13.02;;;7.97;;
32399;SDS011;45045;45.440;9.178;2023-08-21T00:23:07;8.85;;;7.50;;
32399;SDS011;45045;45.440;9.178;2023-08-21T00:25:33;11.75;;;7.90;;
32399;SDS011;45045;45.440;9.178;2023-08-21T00:27:59;11.88;;;7.93;;
32399;SDS011;45045;45.440;9.178;2023-08-21T00:30:25;11.18;;;8.60;;
32399;SDS011;45045;45.440;9.178;2023-08-21T00:32:50;10.70;;;8.23;;
32399;SDS011;45045;45.440;9.178;2023-08-21T00:35:16;9.45;;;7.15;;
32399;SDS011;45045;45.440;9.178;2023-08-21T00:37:42;11.82;;;7.28;;
32399;SDS011;45045;45.440;9.178;2023-08-21T00:40:07;12.40;;;8.70;;
32399;SDS011;45045;45.440;9.178;2023-08-21T00:42:33;12.88;;;7.75;;
32399;SDS011;45045;45.440;9.178;2023-08-21T00:44:59;12.35;;;8.05;;
32399;SDS011;45045;45.440;9.178;2023-08-21T00:47:25;11.35;;;7.45;;
32399;SDS011;45045;45.440;9.178;2023-08-21T00:49:50;10.55;;;8.05;;
32399;SDS011;45045;45.440;9.178;2023-08-21T00:52:16;11.38;;;8.25;;
32399;SDS011;45045;45.440;9.178;2023-08-21T00:54:43;9.85;;;7.90;;
32399;SDS011;45045;45.440;9.178;2023-08-21T00:57:09;9.65;;;8.30;;
32399;SDS011;45045;45.440;9.178;2023-08-21T00:59:35;11.68;;;8.35;;
32399;SDS011;45045;45.440;9.178;2023-08-21T01:02:02;10.02;;;8.65;;
32399;SDS011;45045;45.440;9.178;2023-08-21T01:04:27;10.65;;;8.02;;
32399;SDS011;45045;45.440;9.178;2023-08-21T01:06:53;10.35;;;8.23;;
32399;SDS011;45045;45.440;9.178;2023-08-21T01:15:30;12.13;;;8.40;;
32399;SDS011;45045;45.440;9.178;2023-08-21T01:17:56;10.40;;;8.73;;
32399;SDS011;45045;45.440;9.178;2023-08-21T01:20:22;10.15;;;8.63;;
32399;SDS011;45045;45.440;9.178;2023-08-21T01:22:48;10.55;;;8.55;;
32399;SDS011;45045;45.440;9.178;2023-08-21T01:25:15;13.30;;;8.27;;
32399;SDS011;45045;45.440;9.178;2023-08-21T01:27:42;11.48;;;7.88;;
32399;SDS011;45045;45.440;9.178;2023-08-21T01:30:09;13.10;;;8.57;;
32399;SDS011;45045;45.440;9.178;2023-08-21T01:35:13;10.35;;;8.45;;
32399;SDS011;45045;45.440;9.178;2023-08-21T01:37:39;10.43;;;7.95;;
32399;SDS011;45045;45.440;9.178;2023-08-21T01:40:06;12.52;;;8.77;;
32399;SDS011;45045;45.440;9.178;2023-08-21T01:42:32;11.38;;;8.77;;
32399;SDS011;45045;45.440;9.178;2023-08-21T01:44:57;9.45;;;8.00;;
32399;SDS011;45045;45.440;9.178;2023-08-21T01:47:23;12.70;;;8.48;;
32399;SDS011;45045;45.440;9.178;2023-08-21T01:49:50;12.73;;;8.43;;
32399;SDS011;45045;45.440;9.178;2023-08-21T01:52:19;11.65;;;9.13;;
32399;SDS011;45045;45.440;9.178;2023-08-21T01:54:44;11.95;;;8.30;;
32399;SDS011;45045;45.440;9.178;2023-08-21T01:57:13;10.02;;;8.40;;
32399;SDS011;45045;45.440;9.178;2023-08-21T01:59:38;11.00;;;8.57;;
32399;SDS011;45045;45.440;9.178;2023-08-21T02:02:04;10.82;;;9.05;;
32399;SDS011;45045;45.440;9.178;2023-08-21T02:04:30;10.75;;;8.30;;
32399;SDS011;45045;45.440;9.178;2023-08-21T02:06:55;11.73;;;8.20;;
32399;SDS011;45045;45.440;9.178;2023-08-21T02:09:21;10.80;;;7.90;;
32399;SDS011;45045;45.440;9.178;2023-08-21T02:11:46;10.52;;;8.65;;
32399;SDS011;45045;45.440;9.178;2023-08-21T02:14:12;9.88;;;8.60;;
32399;SDS011;45045;45.440;9.178;2023-08-21T02:16:37;10.73;;;8.35;;
32399;SDS011;45045;45.440;9.178;2023-08-21T02:19:03;11.57;;;8.18;;
32399;SDS011;45045;45.440;9.178;2023-08-21T02:21:29;12.98;;;8.25;;
32399;SDS011;45045;45.440;9.178;2023-08-21T02:23:54;11.07;;;8.05;;
32399;SDS011;45045;45.440;9.178;2023-08-21T02:26:20;10.32;;;7.93;;
32399;SDS011;45045;45.440;9.178;2023-08-21T02:28:45;10.52;;;8.43;;
32399;SDS011;45045;45.440;9.178;2023-08-21T02:31:11;11.23;;;8.25;;
32399;SDS011;45045;45.440;9.178;2023-08-21T02:33:37;10.32;;;8.73;;
32399;SDS011;45045;45.440;9.178;2023-08-21T02:36:03;13.88;;;8.55;;
32399;SDS011;45045;45.440;9.178;2023-08-21T02:38:29;10.30;;;8.05;;
32399;SDS011;45045;45.440;9.178;2023-08-21T02:40:55;10.85;;;7.80;;
32399;SDS011;45045;45.440;9.178;2023-08-21T02:43:20;9.55;;;8.38;;
32399;SDS011;45045;45.440;9.178;2023-08-21T02:45:46;10.68;;;8.10;;
32399;SDS011;45045;45.440;9.178;2023-08-21T02:48:12;11.25;;;8.15;;
32399;SDS011;45045;45.440;9.178;2023-08-21T02:50:37;12.75;;;7.82;;
32399;SDS011;45045;45.440;9.178;2023-08-21T02:53:03;9.70;;;8.10;;
32399;SDS011;45045;45.440;9.178;2023-08-21T02:55:29;12.60;;;8.43;;
32399;SDS011;45045;45.440;9.178;2023-08-21T02:57:54;10.85;;;8.05;;
32399;SDS011;45045;45.440;9.178;2023-08-21T03:00:20;10.15;;;8.27;;
32399;SDS011;45045;45.440;9.178;2023-08-21T03:02:46;9.93;;;7.53;;
32399;SDS011;45045;45.440;9.178;2023-08-21T03:05:11;9.75;;;8.10;;
32399;SDS011;45045;45.440;9.178;2023-08-21T03:07:38;11.95;;;8.00;;
32399;SDS011;45045;45.440;9.178;2023-08-21T03:10:04;12.93;;;7.93;;
32399;SDS011;45045;45.440;9.178;2023-08-21T03:12:31;9.07;;;8.15;;
32399;SDS011;45045;45.440;9.178;2023-08-21T03:14:56;12.00;;;8.55;;
32399;SDS011;45045;45.440;9.178;2023-08-21T03:17:22;11.05;;;8.75;;
32399;SDS011;45045;45.440;9.178;2023-08-21T03:19:49;15.30;;;8.52;;
32399;SDS011;45045;45.440;9.178;2023-08-21T03:22:14;9.88;;;8.65;;
32399;SDS011;45045;45.440;9.178;2023-08-21T03:24:40;11.00;;;8.20;;
32399;SDS011;45045;45.440;9.178;2023-08-21T03:27:06;12.75;;;8.63;;
32399;SDS011;45045;45.440;9.178;2023-08-21T03:29:31;12.73;;;8.90;;
32399;SDS011;45045;45.440;9.178;2023-08-21T03:31:57;10.80;;;8.20;;
32399;SDS011;45045;45.440;9.178;2023-08-21T03:34:23;10.50;;;8.43;;
32399;SDS011;45045;45.440;9.178;2023-08-21T03:36:49;11.88;;;8.48;;
32399;SDS011;45045;45.440;9.178;2023-08-21T03:39:15;11.20;;;8.20;;
32399;SDS011;45045;45.440;9.178;2023-08-21T03:41:41;9.73;;;8.05;;
32399;SDS011;45045;45.440;9.178;2023-08-21T03:44:06;10.45;;;8.57;;
32399;SDS011;45045;45.440;9.178;2023-08-21T03:46:32;10.60;;;8.20;;
32399;SDS011;45045;45.440;9.178;2023-08-21T03:48:58;11.73;;;8.80;;
32399;SDS011;45045;45.440;9.178;2023-08-21T03:51:23;12.18;;;8.20;;
32399;SDS011;45045;45.440;9.178;2023-08-21T03:53:49;11.80;;;8.52;;
32399;SDS011;45045;45.440;9.178;2023-08-21T03:56:14;9.52;;;8.45;;
32399;SDS011;45045;45.440;9.178;2023-08-21T03:58:40;11.30;;;8.27;;
32399;SDS011;45045;45.440;9.178;2023-08-21T04:01:06;9.07;;;8.18;;
32399;SDS011;45045;45.440;9.178;2023-08-21T04:03:32;9.90;;;8.32;;
32399;SDS011;45045;45.440;9.178;2023-08-21T04:05:58;10.15;;;8.43;;
32399;SDS011;45045;45.440;9.178;2023-08-21T04:08:24;13.40;;;8.30;;
32399;SDS011;45045;45.440;9.178;2023-08-21T04:10:50;10.88;;;8.50;;
32399;SDS011;45045;45.440;9.178;2023-08-21T04:13:17;12.30;;;8.75;;
32399;SDS011;45045;45.440;9.178;2023-08-21T04:15:48;11.32;;;8.43;;
32399;SDS011;45045;45.440;9.178;2023-08-21T04:18:14;12.75;;;8.57;;
32399;SDS011;45045;45.440;9.178;2023-08-21T04:20:39;10.07;;;8.40;;
32399;SDS011;45045;45.440;9.178;2023-08-21T04:23:05;10.27;;;8.60;;
32399;SDS011;45045;45.440;9.178;2023-08-21T04:25:30;9.38;;;7.97;;
32399;SDS011;45045;45.440;9.178;2023-08-21T04:27:56;9.85;;;8.35;;
32399;SDS011;45045;45.440;9.178;2023-08-21T04:30:22;11.13;;;8.55;;
32399;SDS011;45045;45.440;9.178;2023-08-21T04:32:47;11.98;;;8.23;;
32399;SDS011;45045;45.440;9.178;2023-08-21T04:35:13;10.73;;;8.20;;
32399;SDS011;45045;45.440;9.178;2023-08-21T04:37:42;12.18;;;8.27;;
32399;SDS011;45045;45.440;9.178;2023-08-21T04:40:11;11.65;;;8.40;;
32399;SDS011;45045;45.440;9.178;2023-08-21T04:42:37;9.65;;;8.57;;
32399;SDS011;45045;45.440;9.178;2023-08-21T04:45:03;11.50;;;8.15;;
32399;SDS011;45045;45.440;9.178;2023-08-21T04:47:30;11.15;;;8.18;;
32399;SDS011;45045;45.440;9.178;2023-08-21T04:49:56;11.88;;;8.27;;
32399;SDS011;45045;45.440;9.178;2023-08-21T04:52:22;9.48;;;8.00;;
32399;SDS011;45045;45.440;9.178;2023-08-21T04:54:48;10.35;;;8.38;;
32399;SDS011;45045;45.440;9.178;2023-08-21T04:57:15;10.95;;;7.97;;
32399;SDS011;45045;45.440;9.178;2023-08-21T04:59:41;11.48;;;8.52;;
32399;SDS011;45045;45.440;9.178;2023-08-21T05:02:07;13.02;;;8.55;;
32399;SDS011;45045;45.440;9.178;2023-08-21T05:04:33;13.75;;;8.88;;
32399;SDS011;45045;45.440;9.178;2023-08-21T05:07:00;11.38;;;8.38;;
32399;SDS011;45045;45.440;9.178;2023-08-21T05:09:26;11.93;;;8.10;;
32399;SDS011;45045;45.440;9.178;2023-08-21T05:11:51;13.57;;;8.40;;
32399;SDS011;45045;45.440;9.178;2023-08-21T05:14:19;11.15;;;8.00;;
32399;SDS011;45045;45.440;9.178;2023-08-21T05:16:45;12.65;;;8.48;;
32399;SDS011;45045;45.440;9.178;2023-08-21T05:19:11;14.43;;;8.63;;
32399;SDS011;45045;45.440;9.178;2023-08-21T05:21:37;13.30;;;8.45;;
32399;SDS011;45045;45.440;9.178;2023-08-21T05:24:02;11.40;;;8.75;;
32399;SDS011;45045;45.440;9.178;2023-08-21T05:26:28;12.82;;;8.45;;
32399;SDS011;45045;45.440;9.178;2023-08-21T05:28:54;11.32;;;8.98;;
32399;SDS011;45045;45.440;9.178;2023-08-21T05:31:19;13.18;;;9.20;;
32399;SDS011;45045;45.440;9.178;2023-08-21T05:33:45;15.02;;;9.38;;
32399;SDS011;45045;45.440;9.178;2023-08-21T05:36:10;13.57;;;9.02;;
32399;SDS011;45045;45.440;9.178;2023-08-21T05:38:36;11.50;;;8.70;;
32399;SDS011;45045;45.440;9.178;2023-08-21T05:41:02;12.27;;;8.98;;
32399;SDS011;45045;45.440;9.178;2023-08-21T05:43:27;12.18;;;9.05;;
32399;SDS011;45045;45.440;9.178;2023-08-21T05:45:53;14.77;;;9.60;;
32399;SDS011;45045;45.440;9.178;2023-08-21T05:48:19;11.68;;;9.40;;
32399;SDS011;45045;45.440;9.178;2023-08-21T05:50:44;12.23;;;9.25;;
32399;SDS011;45045;45.440;9.178;2023-08-21T05:53:15;15.73;;;9.53;;
32399;SDS011;45045;45.440;9.178;2023-08-21T05:55:40;10.65;;;8.50;;
32399;SDS011;45045;45.440;9.178;2023-08-21T05:58:06;13.93;;;9.73;;
32399;SDS011;45045;45.440;9.178;2023-08-21T06:00:33;12.40;;;9.88;;
32399;SDS011;45045;45.440;9.178;2023-08-21T06:02:59;12.35;;;9.45;;
32399;SDS011;45045;45.440;9.178;2023-08-21T06:05:25;13.23;;;9.40;;
32399;SDS011;45045;45.440;9.178;2023-08-21T06:07:50;10.70;;;9.45;;
32399;SDS011;45045;45.440;9.178;2023-08-21T06:10:17;14.63;;;9.18;;
32399;SDS011;45045;45.440;9.178;2023-08-21T06:12:42;14.20;;;9.73;;
32399;SDS011;45045;45.440;9.178;2023-08-21T06:15:08;15.00;;;9.98;;
32399;SDS011;45045;45.440;9.178;2023-08-21T06:17:35;14.65;;;10.70;;
32399;SDS011;45045;45.440;9.178;2023-08-21T06:20:01;15.93;;;9.98;;
32399;SDS011;45045;45.440;9.178;2023-08-21T06:22:30;13.48;;;9.73;;
32399;SDS011;45045;45.440;9.178;2023-08-21T06:24:56;12.85;;;10.25;;
32399;SDS011;45045;45.440;9.178;2023-08-21T06:27:21;16.25;;;10.25;;
32399;SDS011;45045;45.440;9.178;2023-08-21T06:29:47;11.73;;;9.88;;
32399;SDS011;45045;45.440;9.178;2023-08-21T06:32:13;15.02;;;10.00;;
32399;SDS011;45045;45.440;9.178;2023-08-21T06:34:40;14.98;;;10.05;;
32399;SDS011;45045;45.440;9.178;2023-08-21T06:37:06;15.00;;;10.25;;
32399;SDS011;45045;45.440;9.178;2023-08-21T06:39:32;13.85;;;9.55;;
32399;SDS011;45045;45.440;9.178;2023-08-21T06:41:59;13.00;;;9.85;;
32399;SDS011;45045;45.440;9.178;2023-08-21T06:44:25;15.60;;;10.27;;
32399;SDS011;45045;45.440;9.178;2023-08-21T06:46:51;13.35;;;10.10;;
32399;SDS011;45045;45.440;9.178;2023-08-21T06:49:17;17.95;;;10.50;;
32399;SDS011;45045;45.440;9.178;2023-08-21T06:51:42;15.32;;;11.07;;
32399;SDS011;45045;45.440;9.178;2023-08-21T06:54:08;16.88;;;10.93;;
32399;SDS011;45045;45.440;9.178;2023-08-21T06:56:34;19.40;;;11.52;;
32399;SDS011;45045;45.440;9.178;2023-08-21T06:59:00;19.75;;;12.15;;
32399;SDS011;45045;45.440;9.178;2023-08-21T07:01:26;14.68;;;11.23;;
32399;SDS011;45045;45.440;9.178;2023-08-21T07:03:53;18.05;;;11.80;;
32399;SDS011;45045;45.440;9.178;2023-08-21T07:06:18;18.98;;;10.95;;
32399;SDS011;45045;45.440;9.178;2023-08-21T07:08:44;11.82;;;9.80;;
32399;SDS011;45045;45.440;9.178;2023-08-21T07:11:10;13.57;;;8.93;;
32399;SDS011;45045;45.440;9.178;2023-08-21T07:13:37;17.58;;;10.60;;
32399;SDS011;45045;45.440;9.178;2023-08-21T07:16:03;17.30;;;10.75;;
32399;SDS011;45045;45.440;9.178;2023-08-21T07:18:31;13.23;;;10.45;;
32399;SDS011;45045;45.440;9.178;2023-08-21T07:20:58;12.60;;;9.85;;
32399;SDS011;45045;45.440;9.178;2023-08-21T07:23:24;13.43;;;10.00;;
32399;SDS011;45045;45.440;9.178;2023-08-21T07:25:50;14.25;;;9.35;;
32399;SDS011;45045;45.440;9.178;2023-08-21T07:28:16;18.38;;;9.95;;
32399;SDS011;45045;45.440;9.178;2023-08-21T07:30:42;11.63;;;8.32;;
32399;SDS011;45045;45.440;9.178;2023-08-21T07:33:08;13.07;;;10.27;;
32399;SDS011;45045;45.440;9.178;2023-08-21T07:35:33;10.70;;;9.18;;
32399;SDS011;45045;45.440;9.178;2023-08-21T07:37:59;12.60;;;8.82;;
32399;SDS011;45045;45.440;9.178;2023-08-21T07:40:24;9.80;;;8.35;;
32399;SDS011;45045;45.440;9.178;2023-08-21T07:42:50;13.07;;;8.10;;
32399;SDS011;45045;45.440;9.178;2023-08-21T07:45:16;11.15;;;7.93;;
32399;SDS011;45045;45.440;9.178;2023-08-21T07:47:42;12.68;;;8.85;;
32399;SDS011;45045;45.440;9.178;2023-08-21T07:50:07;8.98;;;8.05;;
32399;SDS011;45045;45.440;9.178;2023-08-21T07:52:34;11.52;;;8.68;;
32399;SDS011;45045;45.440;9.178;2023-08-21T07:55:00;11.82;;;8.07;;
32399;SDS011;45045;45.440;9.178;2023-08-21T07:57:27;9.38;;;8.30;;
32399;SDS011;45045;45.440;9.178;2023-08-21T07:59:55;10.77;;;8.55;;
32399;SDS011;45045;45.440;9.178;2023-08-21T08:02:21;11.80;;;8.05;;
32399;SDS011;45045;45.440;9.178;2023-08-21T08:04:48;11.23;;;9.02;;
32399;SDS011;45045;45.440;9.178;2023-08-21T08:07:13;12.50;;;8.13;;
32399;SDS011;45045;45.440;9.178;2023-08-21T08:09:39;12.43;;;8.95;;
32399;SDS011;45045;45.440;9.178;2023-08-21T08:12:05;11.70;;;8.73;;
32399;SDS011;45045;45.440;9.178;2023-08-21T08:14:31;11.43;;;9.95;;
32399;SDS011;45045;45.440;9.178;2023-08-21T08:16:57;10.35;;;8.50;;
32399;SDS011;45045;45.440;9.178;2023-08-21T08:19:22;12.13;;;8.70;;
32399;SDS011;45045;45.440;9.178;2023-08-21T08:21:48;13.80;;;8.23;;
32399;SDS011;45045;45.440;9.178;2023-08-21T08:24:14;9.90;;;8.02;;
32399;SDS011;45045;45.440;9.178;2023-08-21T08:26:39;10.48;;;7.68;;
32399;SDS011;45045;45.440;9.178;2023-08-21T08:29:07;11.23;;;7.57;;
32399;SDS011;45045;45.440;9.178;2023-08-21T08:31:33;8.35;;;7.40;;
32399;SDS011;45045;45.440;9.178;2023-08-21T08:33:58;13.35;;;7.43;;
32399;SDS011;45045;45.440;9.178;2023-08-21T08:36:24;10.68;;;7.43;;
32399;SDS011;45045;45.440;9.178;2023-08-21T08:38:50;11.20;;;8.32;;
32399;SDS011;45045;45.440;9.178;2023-08-21T08:43:50;9.77;;;7.78;;
32399;SDS011;45045;45.440;9.178;2023-08-21T08:46:16;15.02;;;8.18;;
32399;SDS011;45045;45.440;9.178;2023-08-21T08:48:43;13.35;;;8.90;;
32399;SDS011;45045;45.440;9.178;2023-08-21T08:51:08;10.13;;;8.48;;
32399;SDS011;45045;45.440;9.178;2023-08-21T08:53:35;11.73;;;8.20;;
32399;SDS011;45045;45.440;9.178;2023-08-21T08:56:01;13.93;;;9.82;;
32399;SDS011;45045;45.440;9.178;2023-08-21T08:58:28;10.38;;;8.20;;
32399;SDS011;45045;45.440;9.178;2023-08-21T09:00:54;13.32;;;8.68;;
32399;SDS011;45045;45.440;9.178;2023-08-21T09:03:20;13.50;;;10.90;;
32399;SDS011;45045;45.440;9.178;2023-08-21T09:05:45;15.18;;;8.90;;
32399;SDS011;45045;45.440;9.178;2023-08-21T09:08:13;24.40;;;18.65;;
32399;SDS011;45045;45.440;9.178;2023-08-21T09:10:40;15.15;;;9.35;;
32399;SDS011;45045;45.440;9.178;2023-08-21T09:13:16;12.20;;;8.55;;
32399;SDS011;45045;45.440;9.178;2023-08-21T09:15:46;17.88;;;14.77;;
32399;SDS011;45045;45.440;9.178;2023-08-21T09:18:12;25.17;;;16.80;;
32399;SDS011;45045;45.440;9.178;2023-08-21T09:20:39;10.48;;;8.90;;
32399;SDS011;45045;45.440;9.178;2023-08-21T09:23:05;12.38;;;10.00;;
32399;SDS011;45045;45.440;9.178;2023-08-21T09:25:35;14.32;;;9.23;;
32399;SDS011;45045;45.440;9.178;2023-08-21T09:28:06;11.40;;;9.80;;
32399;SDS011;45045;45.440;9.178;2023-08-21T09:30:49;15.73;;;9.90;;
32399;SDS011;45045;45.440;9.178;2023-08-21T09:33:17;13.63;;;8.98;;
32399;SDS011;45045;45.440;9.178;2023-08-21T09:35:47;14.63;;;12.13;;
32399;SDS011;45045;45.440;9.178;2023-08-21T09:38:13;12.60;;;9.48;;
32399;SDS011;45045;45.440;9.178;2023-08-21T09:40:40;13.25;;;10.05;;
32399;SDS011;45045;45.440;9.178;2023-08-21T09:43:07;12.57;;;8.73;;
32399;SDS011;45045;45.440;9.178;2023-08-21T09:45:35;14.02;;;11.23;;
32399;SDS011;45045;45.440;9.178;2023-08-21T09:48:00;12.70;;;9.82;;
32399;SDS011;45045;45.440;9.178;2023-08-21T09:50:28;12.95;;;9.10;;
32399;SDS011;45045;45.440;9.178;2023-08-21T09:52:54;14.63;;;10.32;;
32399;SDS011;45045;45.440;9.178;2023-08-21T09:55:21;11.45;;;10.15;;
32399;SDS011;45045;45.440;9.178;2023-08-21T09:57:48;12.50;;;8.85;;
32399;SDS011;45045;45.440;9.178;2023-08-21T10:00:22;10.43;;;8.60;;
32399;SDS011;45045;45.440;9.178;2023-08-21T10:02:50;12.88;;;9.50;;
32399;SDS011;45045;45.440;9.178;2023-08-21T10:05:17;13.73;;;9.15;;
32399;SDS011;45045;45.440;9.178;2023-08-21T10:07:47;11.15;;;8.55;;
32399;SDS011;45045;45.440;9.178;2023-08-21T10:10:13;11.40;;;8.95;;
32399;SDS011;45045;45.440;9.178;2023-08-21T10:12:40;11.20;;;8.32;;
32399;SDS011;45045;45.440;9.178;2023-08-21T10:15:09;11.75;;;8.23;;
32399;SDS011;45045;45.440;9.178;2023-08-21T10:17:35;9.52;;;7.53;;
32399;SDS011;45045;45.440;9.178;2023-08-21T10:20:10;14.45;;;8.13;;
32399;SDS011;45045;45.440;9.178;2023-08-21T10:22:42;12.68;;;8.02;;
32399;SDS011;45045;45.440;9.178;2023-08-21T10:27:42;10.45;;;8.40;;
32399;SDS011;45045;45.440;9.178;2023-08-21T10:30:14;9.55;;;7.78;;
32399;SDS011;45045;45.440;9.178;2023-08-21T10:32:45;12.95;;;8.52;;
32399;SDS011;45045;45.440;9.178;2023-08-21T10:35:15;10.20;;;7.85;;
32399;SDS011;45045;45.440;9.178;2023-08-21T10:40:32;8.93;;;7.80;;
32399;SDS011;45045;45.440;9.178;2023-08-21T10:42:59;9.63;;;8.38;;
32399;SDS011;45045;45.440;9.178;2023-08-21T10:45:25;9.95;;;7.90;;
32399;SDS011;45045;45.440;9.178;2023-08-21T10:47:51;9.70;;;8.20;;
32399;SDS011;45045;45.440;9.178;2023-08-21T10:50:16;12.15;;;8.10;;
32399;SDS011;45045;45.440;9.178;2023-08-21T10:52:43;10.63;;;8.07;;
32399;SDS011;45045;45.440;9.178;2023-08-21T10:55:12;8.52;;;7.55;;
32399;SDS011;45045;45.440;9.178;2023-08-21T10:57:39;9.95;;;7.90;;
32399;SDS011;45045;45.440;9.178;2023-08-21T11:00:09;10.15;;;7.47;;
32399;SDS011;45045;45.440;9.178;2023-08-21T11:02:40;10.85;;;8.18;;
32399;SDS011;45045;45.440;9.178;2023-08-21T11:05:08;11.38;;;8.02;;
32399;SDS011;45045;45.440;9.178;2023-08-21T11:07:38;9.45;;;8.05;;
32399;SDS011;45045;45.440;9.178;2023-08-21T11:10:09;8.38;;;7.35;;
32399;SDS011;45045;45.440;9.178;2023-08-21T11:12:49;10.02;;;7.28;;
32399;SDS011;45045;45.440;9.178;2023-08-21T11:15:20;10.52;;;8.40;;
32399;SDS011;45045;45.440;9.178;2023-08-21T11:17:53;11.48;;;7.72;;
32399;SDS011;45045;45.440;9.178;2023-08-21T11:20:20;10.32;;;7.63;;
32399;SDS011;45045;45.440;9.178;2023-08-21T11:22:45;9.93;;;7.65;;
32399;SDS011;45045;45.440;9.178;2023-08-21T11:25:11;10.85;;;7.20;;
32399;SDS011;45045;45.440;9.178;2023-08-21T11:27:37;11.15;;;7.07;;
32399;SDS011;45045;45.440;9.178;2023-08-21T11:30:03;11.77;;;7.18;;
32399;SDS011;45045;45.440;9.178;2023-08-21T11:32:29;9.65;;;7.10;;
32399;SDS011;45045;45.440;9.178;2023-08-21T11:34:55;9.00;;;6.47;;
32399;SDS011;45045;45.440;9.178;2023-08-21T11:37:22;10.50;;;6.43;;
32399;SDS011;45045;45.440;9.178;2023-08-21T11:39:53;9.48;;;6.63;;
32399;SDS011;45045;45.440;9.178;2023-08-21T11:42:29;8.82;;;6.30;;
32399;SDS011;45045;45.440;9.178;2023-08-21T11:44:56;9.48;;;5.80;;
32399;SDS011;45045;45.440;9.178;2023-08-21T11:47:23;9.93;;;6.40;;
32399;SDS011;45045;45.440;9.178;2023-08-21T11:52:21;8.23;;;6.20;;
32399;SDS011;45045;45.440;9.178;2023-08-21T11:54:51;8.33;;;5.30;;
32399;SDS011;45045;45.440;9.178;2023-08-21T11:57:17;8.85;;;6.20;;
32399;SDS011;45045;45.440;9.178;2023-08-21T11:59:49;8.07;;;5.57;;
32399;SDS011;45045;45.440;9.178;2023-08-21T12:02:17;7.57;;;5.75;;
32399;SDS011;45045;45.440;9.178;2023-08-21T12:04:44;7.20;;;5.60;;
32399;SDS011;45045;45.440;9.178;2023-08-21T12:07:10;8.02;;;5.53;;
32399;SDS011;45045;45.440;9.178;2023-08-21T12:09:37;8.70;;;5.88;;
32399;SDS011;45045;45.440;9.178;2023-08-21T12:12:04;8.18;;;5.78;;
32399;SDS011;45045;45.440;9.178;2023-08-21T12:14:30;7.07;;;5.10;;
32399;SDS011;45045;45.440;9.178;2023-08-21T12:16:56;6.45;;;5.60;;
32399;SDS011;45045;45.440;9.178;2023-08-21T12:19:22;5.13;;;4.57;;
32399;SDS011;45045;45.440;9.178;2023-08-21T12:21:48;6.00;;;5.00;;
32399;SDS011;45045;45.440;9.178;2023-08-21T12:24:14;6.03;;;4.88;;
32399;SDS011;45045;45.440;9.178;2023-08-21T12:26:40;8.77;;;4.90;;
32399;SDS011;45045;45.440;9.178;2023-08-21T12:29:06;7.63;;;4.63;;
32399;SDS011;45045;45.440;9.178;2023-08-21T12:31:31;7.50;;;5.13;;
32399;SDS011;45045;45.440;9.178;2023-08-21T12:33:57;7.88;;;4.85;;
32399;SDS011;45045;45.440;9.178;2023-08-21T12:36:23;7.13;;;4.80;;
32399;SDS011;45045;45.440;9.178;2023-08-21T12:38:48;8.40;;;5.03;;
32399;SDS011;45045;45.440;9.178;2023-08-21T12:41:14;7.82;;;5.25;;
32399;SDS011;45045;45.440;9.178;2023-08-21T12:43:40;7.43;;;4.85;;
32399;SDS011;45045;45.440;9.178;2023-08-21T12:46:05;9.90;;;5.53;;
32399;SDS011;45045;45.440;9.178;2023-08-21T12:48:31;7.00;;;4.70;;
32399;SDS011;45045;45.440;9.178;2023-08-21T12:50:57;6.97;;;4.88;;
32399;SDS011;45045;45.440;9.178;2023-08-21T12:53:22;7.38;;;5.03;;
32399;SDS011;45045;45.440;9.178;2023-08-21T12:55:48;7.68;;;4.93;;
32399;SDS011;45045;45.440;9.178;2023-08-21T12:58:14;5.88;;;4.75;;
32399;SDS011;45045;45.440;9.178;2023-08-21T13:00:39;10.30;;;4.95;;
32399;SDS011;45045;45.440;9.178;2023-08-21T13:03:05;6.47;;;4.55;;
32399;SDS011;45045;45.440;9.178;2023-08-21T13:05:31;7.97;;;5.05;;
32399;SDS011;45045;45.440;9.178;2023-08-21T13:07:56;6.80;;;5.30;;
32399;SDS011;45045;45.440;9.178;2023-08-21T13:10:22;7.82;;;5.05;;
32399;SDS011;45045;45.440;9.178;2023-08-21T13:12:48;7.57;;;4.78;;
32399;SDS011;45045;45.440;9.178;2023-08-21T13:15:14;9.63;;;5.50;;
32399;SDS011;45045;45.440;9.178;2023-08-21T13:17:40;7.50;;;5.25;;
32399;SDS011;45045;45.440;9.178;2023-08-21T13:20:07;6.13;;;4.55;;
32399;SDS011;45045;45.440;9.178;2023-08-21T13:23:07;7.47;;;4.80;;
32399;SDS011;45045;45.440;9.178;2023-08-21T13:25:25;6.22;;;4.68;;
32399;SDS011;45045;45.440;9.178;2023-08-21T13:27:51;8.48;;;5.20;;
32399;SDS011;45045;45.440;9.178;2023-08-21T13:30:18;7.25;;;4.85;;
32399;SDS011;45045;45.440;9.178;2023-08-21T13:32:43;8.55;;;5.00;;
32399;SDS011;45045;45.440;9.178;2023-08-21T13:35:09;8.35;;;4.78;;
32399;SDS011;45045;45.440;9.178;2023-08-21T13:37:38;5.68;;;4.60;;
32399;SDS011;45045;45.440;9.178;2023-08-21T13:40:04;7.45;;;5.00;;
32399;SDS011;45045;45.440;9.178;2023-08-21T13:42:39;6.07;;;4.80;;
32399;SDS011;45045;45.440;9.178;2023-08-21T13:45:09;7.57;;;5.32;;
32399;SDS011;45045;45.440;9.178;2023-08-21T13:47:37;9.55;;;4.90;;
32399;SDS011;45045;45.440;9.178;2023-08-21T13:50:04;9.75;;;5.13;;
32399;SDS011;45045;45.440;9.178;2023-08-21T13:52:30;9.15;;;4.88;;
32399;SDS011;45045;45.440;9.178;2023-08-21T13:54:57;7.68;;;5.15;;
32399;SDS011;45045;45.440;9.178;2023-08-21T13:57:24;6.78;;;4.70;;
32399;SDS011;45045;45.440;9.178;2023-08-21T13:59:49;9.25;;;5.05;;
32399;SDS011;45045;45.440;9.178;2023-08-21T14:02:15;7.18;;;4.72;;
32399;SDS011;45045;45.440;9.178;2023-08-21T14:04:40;9.25;;;5.25;;
32399;SDS011;45045;45.440;9.178;2023-08-21T14:07:06;6.78;;;5.38;;
32399;SDS011;45045;45.440;9.178;2023-08-21T14:09:32;7.18;;;4.85;;
32399;SDS011;45045;45.440;9.178;2023-08-21T14:11:57;9.95;;;5.63;;
32399;SDS011;45045;45.440;9.178;2023-08-21T14:14:23;7.43;;;5.50;;
32399;SDS011;45045;45.440;9.178;2023-08-21T14:16:48;8.00;;;4.95;;
32399;SDS011;45045;45.440;9.178;2023-08-21T14:19:14;5.90;;;4.95;;
32399;SDS011;45045;45.440;9.178;2023-08-21T14:21:40;9.15;;;5.32;;
32399;SDS011;45045;45.440;9.178;2023-08-21T14:24:06;6.93;;;5.32;;
32399;SDS011;45045;45.440;9.178;2023-08-21T14:26:32;6.15;;;4.88;;
32399;SDS011;45045;45.440;9.178;2023-08-21T14:28:58;7.15;;;4.90;;
32399;SDS011;45045;45.440;9.178;2023-08-21T14:31:24;9.13;;;4.93;;
32399;SDS011;45045;45.440;9.178;2023-08-21T14:33:49;9.52;;;5.38;;
32399;SDS011;45045;45.440;9.178;2023-08-21T14:36:15;6.90;;;5.35;;
32399;SDS011;45045;45.440;9.178;2023-08-21T14:38:41;8.20;;;5.30;;
32399;SDS011;45045;45.440;9.178;2023-08-21T14:41:06;8.00;;;5.60;;
32399;SDS011;45045;45.440;9.178;2023-08-21T14:43:32;6.80;;;5.00;;
32399;SDS011;45045;45.440;9.178;2023-08-21T14:45:58;5.78;;;5.07;;
32399;SDS011;45045;45.440;9.178;2023-08-21T14:48:23;6.40;;;5.18;;
32399;SDS011;45045;45.440;9.178;2023-08-21T14:50:49;8.27;;;5.05;;
32399;SDS011;45045;45.440;9.178;2023-08-21T14:53:15;7.68;;;5.40;;